ENSH/SVJ METAR and TAF weather

Enter ICAO airport designator
Station Type Date Time Source
ENSH METAR 2019/04/18 19:50 UTC NOAA

ENSH 181950Z 06004KT 9999 FEW010 BKN013 03/02 Q1031 RMK WIND 150FT VRB01KT


Station Type Date Time Source
ENSH Decoded METAR 2019/04/18 19:50 UTC NOAA

Svolvaer / Helle, Norway (ENSH) 68-15N 014-40E 9M
Apr 18, 2019 - 03:50 PM EDT / 2019.04.18 1950 UTC
Wind: from the ENE (060 degrees) at 5 MPH (4 KT):0
Visibility: greater than 7 mile(s):0
Sky conditions: mostly cloudy
Temperature: 37 F (3 C)
Dew Point: 35 F (2 C)
Relative Humidity: 93%
Pressure (altimeter): 30.45 in. Hg (1031 hPa)
ob: ENSH 181950Z 06004KT 9999 FEW010 BKN013 03/02 Q1031 RMK WIND 150FT VRB01KT
cycle: 20

Station Type Date Time Source
ENSH TAF UTC NOAA

Error!

Example: see airport list